Cooperstown, Kentucky
Current Conditions -  °F | °C
As of 1:55 PM on Wednesday 17 Dec 2014 (Local Time) from KM91 Reporting Station
Clear Clear  
Wind Chill: 39°   Ceiling: Unl
Heat Index: 39°   Visibility: 10mi
Dew Point: 30°   Wind: 3mph
Humidity: 70%   Direction: 320°NW
Pressure: 30.25"   Gusts: NA
Location:  36.8547°N, 86.8859°W
Report Text: KM91 171955Z AUTO 32003KT 10SM CLR 04/M01 A3025 RMK
Loading
Personal Weather Stations






























Interactive Weather Map New forecast layout! Learn more

10-Day Weather Forecast

Advertisements
Track Severe Weather on mobile